createdAt,value
2022-08-22T00:02:15.620Z,101496.31
2022-08-22T00:02:49.633Z,101498.53
2022-08-22T00:04:45.711Z,101496.08
2022-08-22T00:07:15.991Z,101498.16
2022-08-22T00:09:46.299Z,101499.33
2022-08-22T00:12:16.578Z,101502.49
2022-08-22T00:14:46.919Z,101500.69
2022-08-22T00:17:17.317Z,101500.87
2022-08-22T00:19:47.533Z,101501.41
2022-08-22T00:22:17.828Z,101506.54
2022-08-22T00:24:48.156Z,101511.21
2022-08-22T00:27:18.438Z,101510.01
2022-08-22T00:29:48.819Z,101506.78
2022-08-22T00:32:19.189Z,101503.66
2022-08-22T00:34:49.388Z,101501.16
2022-08-22T00:37:19.686Z,101499.06
2022-08-22T00:39:50.133Z,101498.45
2022-08-22T00:42:31.666Z,101498.77
2022-08-22T00:44:50.653Z,101497.03
2022-08-22T00:47:20.942Z,101499.68
2022-08-22T00:49:51.250Z,101495.50
2022-08-22T00:52:21.559Z,101493.90
2022-08-22T00:54:51.900Z,101495.57
2022-08-22T00:57:22.190Z,101491.89
2022-08-22T00:59:52.533Z,101495.26
2022-08-22T01:02:22.859Z,101489.50
2022-08-22T01:04:53.151Z,101487.68
2022-08-22T01:07:23.437Z,101487.48
2022-08-22T01:09:53.767Z,101487.01
2022-08-22T01:12:24.136Z,101483.11
2022-08-22T01:14:54.394Z,101487.33
2022-08-22T01:17:24.713Z,101485.38
2022-08-22T01:19:55.016Z,101487.01
2022-08-22T01:22:25.305Z,101489.77
2022-08-22T01:24:55.741Z,101487.12
2022-08-22T01:27:25.665Z,101490.02
2022-08-22T01:29:56.026Z,101490.34
2022-08-22T01:32:26.420Z,101493.18
2022-08-22T01:34:56.759Z,101494.79
2022-08-22T01:37:26.938Z,101501.85
2022-08-22T01:39:57.350Z,101500.66
2022-08-22T01:42:27.757Z,101500.57
2022-08-22T01:44:57.892Z,101498.87
2022-08-22T01:47:28.269Z,101501.23
2022-08-22T01:49:58.597Z,101502.32
2022-08-22T01:52:28.806Z,101504.79
2022-08-22T01:54:59.156Z,101503.48
2022-08-22T01:57:29.446Z,101502.84
2022-08-22T01:59:59.772Z,101504.03
2022-08-22T02:02:30.497Z,101503.61
2022-08-22T02:05:01.364Z,101502.11
2022-08-22T02:07:32.219Z,101502.77
2022-08-22T02:10:02.149Z,101498.69
2022-08-22T02:12:32.391Z,101500.17
2022-08-22T02:15:02.766Z,101498.30
2022-08-22T02:17:33.029Z,101495.40
2022-08-22T02:20:03.324Z,101492.21
2022-08-22T02:22:33.606Z,101492.05
2022-08-22T02:25:03.947Z,101497.05
2022-08-22T02:27:34.824Z,101495.25
2022-08-22T02:30:05.127Z,101495.50
2022-08-22T02:32:35.458Z,101495.13
2022-08-22T02:35:05.774Z,101494.53
2022-08-22T02:37:36.053Z,101492.59
2022-08-22T02:40:06.549Z,101491.92
2022-08-22T02:42:37.246Z,101491.57
2022-08-22T02:45:07.606Z,101486.37
2022-08-22T02:47:37.936Z,101484.64
2022-08-22T02:50:12.788Z,101487.54
2022-08-22T02:52:38.569Z,101488.64
2022-08-22T02:55:08.937Z,101487.74
2022-08-22T02:57:39.868Z,101487.18
2022-08-22T03:00:30.818Z,101486.45
2022-08-22T03:02:39.916Z,101483.79
2022-08-22T03:05:10.231Z,101481.11
2022-08-22T03:07:40.545Z,101481.49
2022-08-22T03:10:10.923Z,101478.10
2022-08-22T03:12:41.197Z,101476.74
2022-08-22T03:15:11.551Z,101473.94
2022-08-22T03:17:41.891Z,101468.13
2022-08-22T03:20:12.203Z,101468.65
2022-08-22T03:22:42.532Z,101467.14
2022-08-22T03:25:12.976Z,101463.68
2022-08-22T03:27:45.351Z,101462.95
2022-08-22T03:30:14.090Z,101461.48
2022-08-22T03:32:44.405Z,101461.31
2022-08-22T03:35:14.787Z,101456.87
2022-08-22T03:37:45.006Z,101458.55
2022-08-22T03:40:15.415Z,101457.34
2022-08-22T03:42:45.657Z,101455.94
2022-08-22T03:45:15.957Z,101454.82
2022-08-22T03:47:46.282Z,101450.62
2022-08-22T03:50:16.730Z,101453.73
2022-08-22T03:52:46.909Z,101455.51
2022-08-22T03:55:17.261Z,101456.48
2022-08-22T03:57:47.551Z,101453.33
2022-08-22T04:00:17.920Z,101456.16
2022-08-22T04:02:48.234Z,101454.62
2022-08-22T04:05:18.572Z,101458.82
2022-08-22T04:07:48.864Z,101464.61
2022-08-22T04:10:19.243Z,101464.17
2022-08-22T04:12:49.650Z,101466.95
2022-08-22T04:15:20.500Z,101465.69
2022-08-22T04:17:50.879Z,101463.53
2022-08-22T04:20:21.164Z,101466.64
2022-08-22T04:22:51.501Z,101471.07
2022-08-22T04:25:21.975Z,101469.93
2022-08-22T04:27:52.301Z,101470.81
2022-08-22T04:30:22.270Z,101468.89
2022-08-22T04:32:52.733Z,101470.30
2022-08-22T04:35:22.991Z,101469.99
2022-08-22T04:37:53.325Z,101467.24
2022-08-22T04:40:23.468Z,101467.97
2022-08-22T04:42:53.870Z,101471.99
2022-08-22T04:45:24.143Z,101475.97
2022-08-22T04:47:54.510Z,101476.52
2022-08-22T04:50:24.927Z,101481.58
2022-08-22T04:52:55.191Z,101487.43
2022-08-22T04:55:25.571Z,101487.50
2022-08-22T04:57:55.706Z,101491.02
2022-08-22T05:00:25.997Z,101491.78
2022-08-22T05:02:56.378Z,101491.30
2022-08-22T05:05:26.483Z,101491.03
2022-08-22T05:07:56.535Z,101494.53
2022-08-22T05:10:26.837Z,101496.24
2022-08-22T05:12:57.106Z,101496.24
2022-08-22T05:15:27.189Z,101497.70
2022-08-22T05:17:57.800Z,101498.40
2022-08-22T05:20:27.935Z,101500.30
2022-08-22T05:22:58.253Z,101501.38
2022-08-22T05:25:28.626Z,101502.00
2022-08-22T05:27:59.134Z,101500.98
2022-08-22T05:30:29.358Z,101499.85
2022-08-22T05:32:59.947Z,101501.84
2022-08-22T05:35:30.291Z,101507.49
2022-08-22T05:38:00.704Z,101507.30
2022-08-22T05:40:31.321Z,101510.86
2022-08-22T05:43:01.656Z,101514.09
2022-08-22T05:45:32.035Z,101516.97
2022-08-22T05:48:02.444Z,101518.34
2022-08-22T05:50:32.757Z,101516.52
2022-08-22T05:53:02.809Z,101517.03
2022-08-22T05:55:33.188Z,101519.24
2022-08-22T05:58:03.514Z,101521.98
2022-08-22T06:00:33.610Z,101524.97
2022-08-22T06:03:03.998Z,101524.01
2022-08-22T06:05:34.296Z,101523.78
2022-08-22T06:08:04.613Z,101527.61
2022-08-22T06:10:35.040Z,101529.64
2022-08-22T06:13:05.276Z,101525.81
2022-08-22T06:15:35.633Z,101527.11
2022-08-22T06:18:05.628Z,101531.28
2022-08-22T06:20:35.941Z,101532.58
2022-08-22T06:23:05.937Z,101531.09
2022-08-22T06:25:36.345Z,101532.00
2022-08-22T06:28:06.525Z,101529.60
2022-08-22T06:30:36.850Z,101532.70
2022-08-22T06:33:07.165Z,101531.58
2022-08-22T06:35:37.566Z,101535.38
2022-08-22T06:38:07.710Z,101534.23
2022-08-22T06:40:38.046Z,101538.63
2022-08-22T06:43:08.863Z,101537.06
2022-08-22T06:45:39.780Z,101535.00
2022-08-22T06:48:10.040Z,101535.27
2022-08-22T06:50:40.324Z,101533.84
2022-08-22T06:53:10.591Z,101535.40
2022-08-22T06:55:41.458Z,101536.89
2022-08-22T06:58:11.721Z,101535.11
2022-08-22T07:00:42.058Z,101533.23
2022-08-22T07:03:12.903Z,101535.52
2022-08-22T07:05:43.754Z,101540.23
2022-08-22T07:08:14.574Z,101543.77
2022-08-22T07:10:44.891Z,101545.52
2022-08-22T07:13:15.681Z,101544.76
2022-08-22T07:15:46.010Z,101543.81
2022-08-22T07:18:16.849Z,101545.19
2022-08-22T07:20:47.259Z,101543.31
2022-08-22T07:23:17.934Z,101541.11
2022-08-22T07:25:48.240Z,101539.32
2022-08-22T07:28:18.495Z,101536.94
2022-08-22T07:30:49.409Z,101539.72
2022-08-22T07:33:26.513Z,101540.84
2022-08-22T07:35:53.379Z,101545.25
2022-08-22T07:38:20.192Z,101550.05
2022-08-22T07:40:51.075Z,101552.16
2022-08-22T07:43:21.341Z,101552.25
2022-08-22T07:45:51.666Z,101549.97
2022-08-22T07:48:26.076Z,101550.58
2022-08-22T07:50:52.315Z,101551.82
2022-08-22T07:53:22.476Z,101552.63
2022-08-22T07:55:52.868Z,101553.75
2022-08-22T07:58:23.015Z,101552.88
2022-08-22T08:00:53.310Z,101554.79
2022-08-22T08:03:23.578Z,101555.22
2022-08-22T08:05:53.979Z,101554.53
2022-08-22T08:08:24.535Z,101552.03
2022-08-22T08:10:55.221Z,101548.74
2022-08-22T08:13:25.261Z,101544.96
2022-08-22T08:15:55.622Z,101544.02
2022-08-22T08:18:26.227Z,101542.45
2022-08-22T08:20:56.915Z,101538.18
2022-08-22T08:23:27.560Z,101532.70
2022-08-22T08:25:57.965Z,101528.65
2022-08-22T08:28:28.545Z,101523.89
2022-08-22T08:30:58.861Z,101523.76
2022-08-22T08:33:29.686Z,101524.65
2022-08-22T08:36:02.923Z,101526.75
2022-08-22T08:38:30.207Z,101531.30
2022-08-22T08:41:00.483Z,101528.30
2022-08-22T08:43:30.697Z,101526.95
2022-08-22T08:46:00.964Z,101523.77
2022-08-22T08:48:31.170Z,101520.08
2022-08-22T08:51:02.097Z,101515.75
2022-08-22T08:53:31.637Z,101510.84
2022-08-22T08:56:01.898Z,101511.42
2022-08-22T08:58:32.201Z,101505.91
2022-08-22T09:01:02.617Z,101507.98
2022-08-22T09:03:32.796Z,101507.38
2022-08-22T09:06:03.076Z,101511.72
2022-08-22T09:08:33.373Z,101510.80
2022-08-22T09:11:03.567Z,101510.21
2022-08-22T09:13:40.629Z,101508.67
2022-08-22T09:16:04.708Z,101506.47
2022-08-22T09:18:34.240Z,101505.65
2022-08-22T09:21:04.465Z,101505.29
2022-08-22T09:23:34.668Z,101501.41
2022-08-22T09:26:05.113Z,101500.66
2022-08-22T09:28:35.297Z,101502.49
2022-08-22T09:31:21.944Z,101501.43
2022-08-22T09:33:36.248Z,101498.74
2022-08-22T09:36:06.549Z,101495.44
2022-08-22T09:38:36.730Z,101494.79
2022-08-22T09:41:07.539Z,101491.97
2022-08-22T09:43:37.895Z,101489.04
2022-08-22T09:46:08.453Z,101486.01
2022-08-22T09:48:38.607Z,101484.17
2022-08-22T09:51:31.238Z,101480.07
2022-08-22T09:53:38.969Z,101477.34
2022-08-22T09:56:11.657Z,101473.91
2022-08-22T09:58:41.628Z,101478.93
2022-08-22T10:01:09.723Z,101477.99
2022-08-22T10:03:39.879Z,101479.01
2022-08-22T10:06:10.167Z,101480.28
2022-08-22T10:08:40.336Z,101480.14
2022-08-22T10:11:10.579Z,101476.27
2022-08-22T10:13:40.834Z,101478.08
2022-08-22T10:16:11.011Z,101477.84
2022-08-22T10:18:44.036Z,101471.85
2022-08-22T10:21:12.029Z,101472.49
2022-08-22T10:23:42.222Z,101474.45
2022-08-22T10:26:12.450Z,101470.44
2022-08-22T10:28:42.649Z,101469.21
2022-08-22T10:31:12.857Z,101467.25
2022-08-22T10:33:44.403Z,101462.71
2022-08-22T10:36:13.318Z,101458.08
2022-08-22T10:38:46.526Z,101458.35
2022-08-22T10:41:13.688Z,101460.01
2022-08-22T10:43:44.012Z,101461.28
2022-08-22T10:46:14.228Z,101462.05
2022-08-22T10:48:44.302Z,101459.75
2022-08-22T10:51:14.525Z,101458.93
2022-08-22T10:53:44.694Z,101456.09
2022-08-22T10:56:14.930Z,101452.14
2022-08-22T10:58:45.330Z,101453.23
2022-08-22T11:01:38.187Z,101455.49
2022-08-22T11:03:45.729Z,101452.56
2022-08-22T11:06:16.038Z,101452.30
2022-08-22T11:08:46.133Z,101449.02
2022-08-22T11:11:16.354Z,101449.03
2022-08-22T11:13:47.093Z,101450.95
2022-08-22T11:16:17.300Z,101448.86
2022-08-22T11:18:57.796Z,101448.94
2022-08-22T11:21:17.744Z,101445.91
2022-08-22T11:23:47.904Z,101441.58
2022-08-22T11:26:29.165Z,101444.07
2022-08-22T11:28:48.294Z,101439.99
2022-08-22T11:31:18.497Z,101438.00
2022-08-22T11:33:48.790Z,101437.81
2022-08-22T11:36:18.876Z,101437.65
2022-08-22T11:38:49.029Z,101433.22
2022-08-22T11:41:19.237Z,101431.91
2022-08-22T11:43:49.411Z,101426.97
2022-08-22T11:46:19.941Z,101423.48
2022-08-22T11:48:49.777Z,101423.41
2022-08-22T11:51:23.144Z,101421.99
2022-08-22T11:53:50.144Z,101417.96
2022-08-22T11:56:20.334Z,101417.27
2022-08-22T11:58:50.582Z,101417.50
2022-08-22T12:01:20.981Z,101412.13
2022-08-22T12:03:51.020Z,101411.39
2022-08-22T12:06:21.097Z,101410.19
2022-08-22T12:08:51.340Z,101408.98
2022-08-22T12:11:21.401Z,101407.30
2022-08-22T12:13:51.698Z,101406.67
2022-08-22T12:16:21.746Z,101397.58
2022-08-22T12:18:52.988Z,101398.41
2022-08-22T12:21:22.144Z,101393.08
2022-08-22T12:23:52.210Z,101389.80
2022-08-22T12:26:22.452Z,101386.73
2022-08-22T12:28:52.522Z,101384.48
2022-08-22T12:31:23.277Z,101381.32
2022-08-22T12:33:53.418Z,101379.11
2022-08-22T12:36:23.638Z,101379.39
2022-08-22T12:38:53.753Z,101375.87
2022-08-22T12:41:28.010Z,101377.64
2022-08-22T12:43:54.042Z,101373.30
2022-08-22T12:46:24.300Z,101369.15
2022-08-22T12:48:54.412Z,101366.43
2022-08-22T12:51:24.570Z,101368.05
2022-08-22T12:53:54.655Z,101367.64
2022-08-22T12:56:24.740Z,101363.35
2022-08-22T12:58:54.877Z,101361.85
2022-08-22T13:01:33.956Z,101359.05
2022-08-22T13:03:55.139Z,101356.03
2022-08-22T13:06:25.317Z,101352.13
2022-08-22T13:08:55.397Z,101349.71
2022-08-22T13:11:25.601Z,101347.38
2022-08-22T13:13:56.196Z,101343.24
2022-08-22T13:16:25.837Z,101344.54
2022-08-22T13:18:55.904Z,101341.38
2022-08-22T13:21:26.060Z,101343.84
2022-08-22T13:23:56.131Z,101345.52
2022-08-22T13:26:32.005Z,101342.13
2022-08-22T13:29:15.249Z,101343.40
2022-08-22T13:31:26.477Z,101335.02
2022-08-22T13:33:56.549Z,101332.56
2022-08-22T13:36:26.789Z,101334.08
2022-08-22T13:38:56.737Z,101333.25
2022-08-22T13:41:26.872Z,101335.21
2022-08-22T13:43:56.925Z,101329.78
2022-08-22T13:46:28.144Z,101327.47
2022-08-22T13:49:00.805Z,101329.16
2022-08-22T13:51:27.348Z,101328.91
2022-08-22T13:54:00.635Z,101329.28
2022-08-22T13:56:27.401Z,101325.70
2022-08-22T13:58:57.462Z,101320.91
2022-08-22T14:01:28.383Z,101321.52
2022-08-22T14:03:57.702Z,101320.81
2022-08-22T14:06:36.814Z,101317.60
2022-08-22T14:08:57.812Z,101315.59
2022-08-22T14:11:27.919Z,101311.46
2022-08-22T14:13:57.988Z,101312.21
2022-08-22T14:16:28.087Z,101313.21
2022-08-22T14:18:58.149Z,101306.42
2022-08-22T14:21:28.331Z,101304.38
2022-08-22T14:23:58.391Z,101299.79
2022-08-22T14:26:33.139Z,101301.02
2022-08-22T14:28:58.605Z,101300.98
2022-08-22T14:31:28.740Z,101306.43
2022-08-22T14:33:58.825Z,101307.53
2022-08-22T14:36:28.989Z,101302.59
2022-08-22T14:38:59.035Z,101300.19
2022-08-22T14:41:56.010Z,101295.49
2022-08-22T14:43:59.314Z,101292.10
2022-08-22T14:46:29.442Z,101292.59
2022-08-22T14:48:59.570Z,101289.28
2022-08-22T14:51:29.707Z,101287.58
2022-08-22T14:53:59.683Z,101288.17
2022-08-22T14:56:29.929Z,101287.72
2022-08-22T14:58:59.905Z,101280.66
2022-08-22T15:01:33.067Z,101277.39
2022-08-22T15:04:00.141Z,101273.43
2022-08-22T15:06:30.408Z,101269.09
2022-08-22T15:09:00.403Z,101267.97
2022-08-22T15:11:31.920Z,101264.73
2022-08-22T15:14:00.614Z,101260.93
2022-08-22T15:16:30.756Z,101262.72
2022-08-22T15:19:00.857Z,101257.00
2022-08-22T15:21:31.024Z,101257.23
2022-08-22T15:24:01.076Z,101257.12
2022-08-22T15:26:31.209Z,101256.32
2022-08-22T15:29:01.296Z,101256.74
2022-08-22T15:31:31.435Z,101253.36
2022-08-22T15:34:01.516Z,101254.14
2022-08-22T15:36:31.672Z,101252.87
2022-08-22T15:39:01.757Z,101250.47
2022-08-22T15:41:36.678Z,101247.86
2022-08-22T15:44:01.967Z,101248.49
2022-08-22T15:46:32.658Z,101247.17
2022-08-22T15:49:02.760Z,101248.22
2022-08-22T15:51:32.931Z,101248.41
2022-08-22T15:54:02.993Z,101247.05
2022-08-22T15:56:33.136Z,101243.63
2022-08-22T15:59:03.239Z,101245.69
2022-08-22T16:01:33.459Z,101246.26
2022-08-22T16:04:03.473Z,101247.81
2022-08-22T16:06:33.642Z,101245.98
2022-08-22T16:09:03.705Z,101245.02
2022-08-22T16:11:33.934Z,101247.52
2022-08-22T16:14:03.942Z,101244.57
2022-08-22T16:16:34.083Z,101243.18
2022-08-22T16:19:04.186Z,101243.00
2022-08-22T16:21:34.366Z,101243.89
2022-08-22T16:24:04.423Z,101243.11
2022-08-22T16:26:34.552Z,101245.18
2022-08-22T16:29:04.651Z,101242.09
2022-08-22T16:31:34.814Z,101238.97
2022-08-22T16:34:05.004Z,101240.16
2022-08-22T16:36:35.146Z,101239.67
2022-08-22T16:39:05.251Z,101235.17
2022-08-22T16:41:35.310Z,101235.07
2022-08-22T16:44:05.475Z,101233.90
2022-08-22T16:46:36.672Z,101233.06
2022-08-22T16:49:05.684Z,101231.77
2022-08-22T16:51:35.875Z,101231.94
2022-08-22T16:54:05.942Z,101231.69
2022-08-22T16:56:36.105Z,101231.62
2022-08-22T16:59:19.685Z,101235.18
2022-08-22T17:01:36.499Z,101230.03
2022-08-22T17:04:06.498Z,101229.33
2022-08-22T17:06:36.701Z,101231.46
2022-08-22T17:09:06.885Z,101231.07
2022-08-22T17:11:36.932Z,101232.53
2022-08-22T17:14:07.216Z,101234.70
2022-08-22T17:16:37.207Z,101236.02
2022-08-22T17:19:07.364Z,101239.35
2022-08-22T17:21:37.531Z,101241.18
2022-08-22T17:24:07.661Z,101239.91
2022-08-22T17:26:37.913Z,101238.13
2022-08-22T17:29:08.165Z,101233.94
2022-08-22T17:31:38.945Z,101230.99
2022-08-22T17:34:09.188Z,101231.22
2022-08-22T17:36:39.300Z,101232.69
2022-08-22T17:39:09.966Z,101233.77
2022-08-22T17:41:40.250Z,101236.45
2022-08-22T17:44:10.735Z,101235.06
2022-08-22T17:46:41.594Z,101234.57
2022-08-22T17:49:11.877Z,101235.66
2022-08-22T17:51:41.918Z,101237.63
2022-08-22T17:54:12.000Z,101238.02
2022-08-22T17:56:42.111Z,101240.28
2022-08-22T18:01:42.509Z,101239.82
2022-08-22T18:04:12.457Z,101241.64
2022-08-22T18:06:42.647Z,101242.99
2022-08-22T18:09:14.190Z,101241.95
2022-08-22T18:11:42.879Z,101242.86
2022-08-22T18:14:13.025Z,101244.42
2022-08-22T18:16:43.146Z,101245.24
2022-08-22T18:19:13.250Z,101248.67
2022-08-22T18:21:43.431Z,101250.23
2022-08-22T18:24:13.733Z,101251.31
2022-08-22T18:26:43.837Z,101250.34
2022-08-22T18:29:13.785Z,101252.04
2022-08-22T18:31:43.966Z,101252.35
2022-08-22T18:34:14.089Z,101256.37
2022-08-22T18:36:44.294Z,101256.64
2022-08-22T18:39:14.380Z,101259.65
2022-08-22T18:41:44.720Z,101262.60
2022-08-22T18:44:14.752Z,101264.22
2022-08-22T18:46:45.073Z,101265.18
2022-08-22T18:49:15.970Z,101267.85
2022-08-22T18:51:45.184Z,101271.69
2022-08-22T18:54:15.294Z,101277.70
2022-08-22T18:56:45.463Z,101281.24
2022-08-22T18:59:15.584Z,101286.19
2022-08-22T19:01:45.841Z,101285.79
2022-08-22T19:04:16.557Z,101287.17
2022-08-22T19:06:46.667Z,101286.47
2022-08-22T19:09:16.790Z,101287.84
2022-08-22T19:11:47.111Z,101288.31
2022-08-22T19:14:17.128Z,101292.08
2022-08-22T19:16:47.324Z,101293.22
2022-08-22T19:19:17.779Z,101295.06
2022-08-22T19:21:47.725Z,101297.57
2022-08-22T19:24:17.813Z,101296.99
2022-08-22T19:26:48.021Z,101298.01
2022-08-22T19:29:18.246Z,101300.68
2022-08-22T19:31:48.382Z,101299.91
2022-08-22T19:34:18.567Z,101305.16
2022-08-22T19:36:48.841Z,101306.54
2022-08-22T19:39:18.962Z,101304.74
2022-08-22T19:41:49.216Z,101306.12
2022-08-22T19:44:19.370Z,101303.25
2022-08-22T19:46:49.600Z,101306.47
2022-08-22T19:49:19.770Z,101305.65
2022-08-22T19:51:50.075Z,101307.13
2022-08-22T19:54:20.192Z,101305.95
2022-08-22T19:56:50.547Z,101301.85
2022-08-22T19:59:20.638Z,101296.25
2022-08-22T20:01:50.863Z,101293.02
2022-08-22T20:04:21.031Z,101295.99
2022-08-22T20:06:51.306Z,101297.12
2022-08-22T20:09:21.479Z,101296.66
2022-08-22T20:11:51.713Z,101297.57
2022-08-22T20:14:28.488Z,101292.58
2022-08-22T20:16:52.185Z,101291.52
2022-08-22T20:19:22.343Z,101293.98
2022-08-22T20:21:52.608Z,101293.24
2022-08-22T20:24:22.779Z,101293.73
2022-08-22T20:27:12.636Z,101291.08
2022-08-22T20:29:23.228Z,101288.73
2022-08-22T20:31:56.752Z,101289.30
2022-08-22T20:34:23.658Z,101284.99
2022-08-22T20:37:09.802Z,101283.02
2022-08-22T20:39:24.666Z,101281.20
2022-08-22T20:41:55.017Z,101280.60
2022-08-22T20:44:25.239Z,101279.73
2022-08-22T20:46:55.520Z,101280.97
2022-08-22T20:49:25.650Z,101280.44
2022-08-22T20:51:55.943Z,101278.92
2022-08-22T20:54:26.096Z,101280.33
2022-08-22T20:56:56.352Z,101281.68
2022-08-22T20:59:26.539Z,101287.34
2022-08-22T21:01:56.794Z,101284.76
2022-08-22T21:04:27.036Z,101284.05
2022-08-22T21:06:57.364Z,101282.18
2022-08-22T21:09:27.546Z,101282.71
2022-08-22T21:11:57.792Z,101282.58
2022-08-22T21:14:27.916Z,101281.05
2022-08-22T21:16:58.171Z,101283.28
2022-08-22T21:19:28.361Z,101280.04
2022-08-22T21:21:58.710Z,101277.32
2022-08-22T21:24:28.798Z,101273.56
2022-08-22T21:26:59.068Z,101272.21
2022-08-22T21:29:34.016Z,101271.87
2022-08-22T21:32:04.648Z,101274.99
2022-08-22T21:34:29.733Z,101274.37
2022-08-22T21:37:00.041Z,101272.70
2022-08-22T21:39:30.213Z,101272.04
2022-08-22T21:42:00.480Z,101269.81
2022-08-22T21:44:30.711Z,101270.68
2022-08-22T21:47:01.066Z,101268.74
2022-08-22T21:49:31.210Z,101268.09
2022-08-22T21:52:01.605Z,101267.44
2022-08-22T21:54:31.703Z,101265.52
2022-08-22T21:57:02.555Z,101265.78
2022-08-22T21:59:43.141Z,101271.05
2022-08-22T22:02:03.162Z,101276.51
2022-08-22T22:04:33.303Z,101277.39
2022-08-22T22:07:04.239Z,101274.34
2022-08-22T22:09:34.343Z,101276.48
2022-08-22T22:12:04.660Z,101275.27
2022-08-22T22:14:34.842Z,101276.99
2022-08-22T22:17:05.123Z,101278.56
2022-08-22T22:19:35.333Z,101277.72
2022-08-22T22:22:05.654Z,101278.52
2022-08-22T22:24:35.860Z,101278.41
2022-08-22T22:27:06.125Z,101274.46
2022-08-22T22:29:36.340Z,101272.08
2022-08-22T22:32:06.703Z,101274.66
2022-08-22T22:34:36.827Z,101272.96
2022-08-22T22:37:07.149Z,101270.97
2022-08-22T22:39:37.323Z,101274.37
2022-08-22T22:42:08.169Z,101274.52
2022-08-22T22:44:38.397Z,101275.49
2022-08-22T22:47:08.679Z,101273.56
2022-08-22T22:49:39.468Z,101279.02
2022-08-22T22:52:11.593Z,101279.04
2022-08-22T22:54:40.540Z,101278.07
2022-08-22T22:57:12.471Z,101280.99
2022-08-22T22:59:41.597Z,101280.51
2022-08-22T23:02:11.906Z,101279.94
2022-08-22T23:04:42.202Z,101281.64
2022-08-22T23:07:12.501Z,101282.53
2022-08-22T23:09:44.736Z,101284.04
2022-08-22T23:12:13.066Z,101280.89
2022-08-22T23:14:43.316Z,101284.46
2022-08-22T23:17:13.587Z,101282.59
2022-08-22T23:19:43.820Z,101286.30
2022-08-22T23:22:14.132Z,101286.83
2022-08-22T23:24:44.331Z,101286.04
2022-08-22T23:27:14.627Z,101290.89
2022-08-22T23:29:44.930Z,101292.76
2022-08-22T23:32:15.132Z,101296.69
2022-08-22T23:34:45.590Z,101293.17
2022-08-22T23:37:16.035Z,101294.18
2022-08-22T23:39:46.210Z,101292.59
2022-08-22T23:42:16.429Z,101289.73
2022-08-22T23:44:46.671Z,101290.57
2022-08-22T23:47:16.970Z,101296.86
2022-08-22T23:49:47.332Z,101297.93
2022-08-22T23:52:17.569Z,101296.29
2022-08-22T23:54:47.512Z,101293.65
2022-08-22T23:57:17.867Z,101294.57
2022-08-22T23:59:57.844Z,101293.27
